createdAt,value
2023-05-19T00:01:02.228Z,6.03
2023-05-19T00:03:31.798Z,4.93
2023-05-19T00:06:03.358Z,10.20
2023-05-19T00:08:32.741Z,4.43
2023-05-19T00:11:01.641Z,6.17
2023-05-19T00:13:31.156Z,5.17
2023-05-19T00:16:00.049Z,5.83
2023-05-19T00:18:29.680Z,6.20
2023-05-19T00:20:58.331Z,6.63
2023-05-19T00:23:28.290Z,3.90
2023-05-19T00:25:56.990Z,4.23
2023-05-19T00:28:25.610Z,4.50
2023-05-19T00:30:54.193Z,5.57
2023-05-19T00:33:22.799Z,8.63
2023-05-19T00:35:51.359Z,5.80
2023-05-19T00:38:19.964Z,4.03
2023-05-19T00:40:49.971Z,4.37
2023-05-19T00:43:18.602Z,3.30
2023-05-19T00:45:47.313Z,3.70
2023-05-19T00:48:15.921Z,3.60
2023-05-19T00:50:44.689Z,4.90
2023-05-19T00:53:13.528Z,4.97
2023-05-19T00:55:42.483Z,5.23
2023-05-19T00:58:13.633Z,5.37
2023-05-19T01:00:42.648Z,5.20
2023-05-19T01:03:12.163Z,7.00
2023-05-19T01:05:41.546Z,3.70
2023-05-19T01:08:10.199Z,6.93
2023-05-19T01:10:39.116Z,3.80
2023-05-19T01:13:08.261Z,3.40
2023-05-19T01:15:45.296Z,3.77
2023-05-19T01:18:16.603Z,5.40
2023-05-19T01:20:49.104Z,5.07
2023-05-19T01:23:25.519Z,5.30
2023-05-19T01:26:09.091Z,4.60
2023-05-19T01:28:53.184Z,4.83
2023-05-19T01:31:24.412Z,3.50
2023-05-19T01:33:54.515Z,3.90
2023-05-19T01:36:24.284Z,4.60
2023-05-19T01:38:53.840Z,4.93
2023-05-19T01:41:23.472Z,5.20
2023-05-19T01:43:54.198Z,5.27
2023-05-19T01:46:25.052Z,4.07
2023-05-19T01:48:54.170Z,5.83
2023-05-19T01:51:22.801Z,4.30
2023-05-19T01:53:51.437Z,4.63
2023-05-19T01:56:23.252Z,3.87
2023-05-19T01:58:54.983Z,5.37
2023-05-19T02:01:30.740Z,4.27
2023-05-19T02:04:04.024Z,5.87
2023-05-19T02:06:37.339Z,7.10
2023-05-19T02:09:08.803Z,7.23
2023-05-19T02:11:38.694Z,6.63
2023-05-19T02:14:10.333Z,4.13
2023-05-19T02:16:40.750Z,4.53
2023-05-19T02:19:21.377Z,4.03
2023-05-19T02:21:50.138Z,7.53
2023-05-19T02:24:20.024Z,5.03
2023-05-19T02:26:48.596Z,3.63
2023-05-19T02:29:17.344Z,3.33
2023-05-19T02:31:47.344Z,4.27
2023-05-19T02:34:16.418Z,4.87
2023-05-19T02:36:45.320Z,4.73
2023-05-19T02:39:14.493Z,4.40
2023-05-19T02:41:43.088Z,6.47
2023-05-19T02:44:11.738Z,4.60
2023-05-19T02:46:40.504Z,5.67
2023-05-19T02:49:11.186Z,4.87
2023-05-19T02:51:39.796Z,5.53
2023-05-19T02:54:08.454Z,6.83
2023-05-19T02:56:37.108Z,3.23
2023-05-19T02:59:06.215Z,3.43
2023-05-19T03:01:34.872Z,4.17
2023-05-19T03:04:03.581Z,6.50
2023-05-19T03:06:34.289Z,5.63
2023-05-19T03:09:02.986Z,3.83
2023-05-19T03:11:31.626Z,3.77
2023-05-19T03:14:00.464Z,4.20
2023-05-19T03:16:29.492Z,6.10
2023-05-19T03:18:58.266Z,6.40
2023-05-19T03:21:26.905Z,3.80
2023-05-19T03:23:56.893Z,7.33
2023-05-19T03:26:25.506Z,3.83
2023-05-19T03:28:54.207Z,4.33
2023-05-19T03:31:22.952Z,3.97
2023-05-19T03:33:51.574Z,3.90
2023-05-19T03:36:20.187Z,5.23
2023-05-19T03:38:48.805Z,3.70
2023-05-19T03:41:18.755Z,3.43
2023-05-19T03:43:47.404Z,5.33
2023-05-19T03:46:16.002Z,4.60
2023-05-19T03:48:45.044Z,5.17
2023-05-19T03:51:13.589Z,3.83
2023-05-19T03:53:42.492Z,5.57
2023-05-19T03:56:13.596Z,5.07
2023-05-19T03:58:45.005Z,4.40
2023-05-19T04:01:13.764Z,4.23
2023-05-19T04:03:42.513Z,6.27
2023-05-19T04:06:11.111Z,5.63
2023-05-19T04:08:39.789Z,4.37
2023-05-19T04:11:08.427Z,3.53
2023-05-19T04:13:37.082Z,4.13
2023-05-19T04:16:07.589Z,4.93
2023-05-19T04:18:36.233Z,5.13
2023-05-19T04:21:05.056Z,4.00
2023-05-19T04:23:33.690Z,4.77
2023-05-19T04:26:03.571Z,5.63
2023-05-19T04:28:32.362Z,4.43
2023-05-19T04:31:01.347Z,6.87
2023-05-19T04:33:31.374Z,4.33
2023-05-19T04:36:00.002Z,5.07
2023-05-19T04:38:29.961Z,8.50
2023-05-19T04:41:01.612Z,3.90
2023-05-19T04:43:30.168Z,5.07
2023-05-19T04:45:59.369Z,6.03
2023-05-19T04:48:30.858Z,6.37
2023-05-19T04:51:01.602Z,5.60
2023-05-19T04:53:30.269Z,6.33
2023-05-19T04:56:00.896Z,6.60
2023-05-19T04:58:30.164Z,7.50
2023-05-19T05:00:58.939Z,6.83
2023-05-19T05:03:27.596Z,7.37
2023-05-19T05:05:56.701Z,8.13
2023-05-19T05:08:27.177Z,6.10
2023-05-19T05:10:56.074Z,5.97
2023-05-19T05:13:25.698Z,6.27
2023-05-19T05:15:54.483Z,8.57
2023-05-19T05:18:23.456Z,8.57
2023-05-19T05:20:52.267Z,6.20
2023-05-19T05:23:21.087Z,7.03
2023-05-19T05:25:51.413Z,7.37
2023-05-19T05:28:20.175Z,8.23
2023-05-19T05:30:49.107Z,9.50
2023-05-19T05:33:18.319Z,5.40
2023-05-19T05:35:47.203Z,6.67
2023-05-19T05:38:15.862Z,7.30
2023-05-19T05:40:44.504Z,8.87
2023-05-19T05:43:14.552Z,5.07
2023-05-19T05:45:43.120Z,5.90
2023-05-19T05:48:12.103Z,6.13
2023-05-19T05:50:41.067Z,6.63
2023-05-19T05:53:12.430Z,8.23
2023-05-19T05:55:41.621Z,11.00
2023-05-19T05:58:11.114Z,4.80
2023-05-19T06:00:43.407Z,7.33
2023-05-19T06:03:12.118Z,7.70
2023-05-19T06:05:40.937Z,8.30
2023-05-19T06:08:09.634Z,4.90
2023-05-19T06:10:41.619Z,7.27
2023-05-19T06:13:10.269Z,4.80
2023-05-19T06:15:38.917Z,4.13
2023-05-19T06:18:08.923Z,4.57
2023-05-19T06:20:37.618Z,3.23
2023-05-19T06:23:06.228Z,8.37
2023-05-19T06:25:34.991Z,4.13
2023-05-19T06:28:03.739Z,4.27
2023-05-19T06:30:32.982Z,7.33
2023-05-19T06:33:01.864Z,2.73
2023-05-19T06:35:31.849Z,2.90
2023-05-19T06:38:00.503Z,4.87
2023-05-19T06:40:29.233Z,3.37
2023-05-19T06:42:57.813Z,3.37
2023-05-19T06:45:26.521Z,5.50
2023-05-19T06:47:55.561Z,4.87
2023-05-19T06:50:24.270Z,3.43
2023-05-19T06:52:54.501Z,2.63
2023-05-19T06:55:23.200Z,3.00
2023-05-19T06:57:51.796Z,3.57
2023-05-19T07:00:22.997Z,3.23
2023-05-19T07:02:52.613Z,2.20
2023-05-19T07:05:21.578Z,2.77
2023-05-19T07:07:50.146Z,3.40
2023-05-19T07:10:21.357Z,3.37
2023-05-19T07:12:49.993Z,5.40
2023-05-19T07:15:18.659Z,2.87
2023-05-19T07:17:47.645Z,3.30
2023-05-19T07:20:16.464Z,3.70
2023-05-19T07:22:45.091Z,2.17
2023-05-19T07:25:13.700Z,3.30
2023-05-19T07:27:43.628Z,3.30
2023-05-19T07:30:12.660Z,2.33
2023-05-19T07:32:41.312Z,4.17
2023-05-19T07:35:10.150Z,3.07
2023-05-19T07:37:38.958Z,4.63
2023-05-19T07:40:08.684Z,2.03
2023-05-19T07:42:37.287Z,2.40
2023-05-19T07:45:07.866Z,2.57
2023-05-19T07:47:36.528Z,3.67
2023-05-19T07:50:05.279Z,2.50
2023-05-19T07:52:34.007Z,1.80
2023-05-19T07:55:02.612Z,1.90
2023-05-19T07:57:32.321Z,3.27
2023-05-19T08:00:01.111Z,2.30
2023-05-19T08:02:31.105Z,2.70
2023-05-19T08:05:00.122Z,1.63
2023-05-19T08:07:28.794Z,3.40
2023-05-19T08:09:57.463Z,3.77
2023-05-19T08:12:26.121Z,3.80
2023-05-19T08:14:54.758Z,3.17
2023-05-19T08:17:23.460Z,2.13
2023-05-19T08:19:54.127Z,3.27
2023-05-19T08:22:22.712Z,4.53
2023-05-19T08:24:51.674Z,3.37
2023-05-19T08:27:20.276Z,3.80
2023-05-19T08:29:48.882Z,4.13
2023-05-19T08:32:17.964Z,5.47
2023-05-19T08:34:46.681Z,2.73
2023-05-19T08:37:16.746Z,3.07
2023-05-19T08:39:45.401Z,3.17
2023-05-19T08:42:14.004Z,4.17
2023-05-19T08:44:43.915Z,3.00
2023-05-19T08:47:13.845Z,3.27
2023-05-19T08:49:45.224Z,2.10
2023-05-19T08:52:22.046Z,2.90
2023-05-19T08:54:55.732Z,2.40
2023-05-19T08:57:24.908Z,3.47
2023-05-19T08:59:54.987Z,3.00
2023-05-19T09:02:23.916Z,2.27
2023-05-19T09:04:52.636Z,3.10
2023-05-19T09:07:23.470Z,3.60
2023-05-19T09:09:52.115Z,1.67
2023-05-19T09:12:21.019Z,2.97
2023-05-19T09:14:50.008Z,3.93
2023-05-19T09:17:18.922Z,2.80
2023-05-19T09:19:49.267Z,4.23
2023-05-19T09:22:19.146Z,3.90
2023-05-19T09:24:49.269Z,3.60
2023-05-19T09:27:23.421Z,5.43
2023-05-19T09:29:52.048Z,3.10
2023-05-19T09:32:27.460Z,2.43
2023-05-19T09:34:57.096Z,1.80
2023-05-19T09:37:26.141Z,3.03
2023-05-19T09:39:56.488Z,2.37
2023-05-19T09:42:29.799Z,3.17
2023-05-19T09:45:02.329Z,3.63
2023-05-19T09:47:35.408Z,2.17
2023-05-19T09:50:04.466Z,1.83
2023-05-19T09:52:33.121Z,3.23
2023-05-19T09:55:04.963Z,2.03
2023-05-19T09:57:37.030Z,2.70
2023-05-19T10:00:14.216Z,2.80
2023-05-19T10:02:44.652Z,3.10
2023-05-19T10:05:17.570Z,2.53
2023-05-19T10:07:48.437Z,2.60
2023-05-19T10:10:20.115Z,2.83
2023-05-19T10:12:49.053Z,3.63
2023-05-19T10:15:18.950Z,3.40
2023-05-19T10:17:48.725Z,3.50
2023-05-19T10:20:18.424Z,5.50
2023-05-19T10:22:48.649Z,2.00
2023-05-19T10:25:20.128Z,3.23
2023-05-19T10:27:51.820Z,3.57
2023-05-19T10:30:22.419Z,2.97
2023-05-19T10:32:51.992Z,2.63
2023-05-19T10:35:38.587Z,3.37
2023-05-19T10:38:12.696Z,3.13
2023-05-19T10:40:51.541Z,2.33
2023-05-19T10:43:26.528Z,2.70
2023-05-19T10:45:55.993Z,2.37
2023-05-19T10:48:24.596Z,2.87
2023-05-19T10:50:55.510Z,3.13
2023-05-19T10:53:24.176Z,4.00
2023-05-19T10:55:56.886Z,3.43
2023-05-19T10:58:41.752Z,3.00
2023-05-19T11:01:11.091Z,1.50
2023-05-19T11:03:49.551Z,2.83
2023-05-19T11:06:23.568Z,3.10
2023-05-19T11:08:54.544Z,3.13
2023-05-19T11:11:24.624Z,2.93
2023-05-19T11:13:53.886Z,3.23
2023-05-19T11:16:28.496Z,3.50
2023-05-19T11:18:57.481Z,4.90
2023-05-19T11:21:26.414Z,2.45
2023-05-19T11:23:55.214Z,2.80
2023-05-19T11:29:20.468Z,4.13
2023-05-19T11:31:49.454Z,1.95
2023-05-19T11:34:18.221Z,2.97
2023-05-19T11:36:46.884Z,2.17
2023-05-19T11:39:15.846Z,4.45
2023-05-19T11:41:45.082Z,2.50
2023-05-19T11:44:13.711Z,3.40
2023-05-19T11:46:43.752Z,3.50
2023-05-19T11:49:13.282Z,5.05
2023-05-19T11:51:44.861Z,2.55
2023-05-19T11:54:13.813Z,2.20
2023-05-19T11:56:43.086Z,1.63
2023-05-19T11:59:11.719Z,3.92
2023-05-19T12:01:40.363Z,3.85
2023-05-19T12:04:11.035Z,2.63
2023-05-19T12:06:40.786Z,1.92
2023-05-19T12:09:09.863Z,2.83
2023-05-19T12:11:39.607Z,2.50
2023-05-19T12:14:08.960Z,2.28
2023-05-19T12:16:37.716Z,3.17
2023-05-19T12:19:07.338Z,1.95
2023-05-19T12:21:37.541Z,2.70
2023-05-19T12:24:06.741Z,1.60
2023-05-19T12:26:37.164Z,1.73
2023-05-19T12:29:07.384Z,2.58
2023-05-19T12:31:36.443Z,2.13
2023-05-19T12:34:05.134Z,3.07
2023-05-19T12:36:33.788Z,2.95
2023-05-19T12:39:04.630Z,2.33
2023-05-19T12:41:33.368Z,2.88
2023-05-19T12:44:01.983Z,2.00
2023-05-19T12:46:34.341Z,2.35
2023-05-19T12:49:02.967Z,2.95
2023-05-19T12:51:31.586Z,1.75
2023-05-19T12:54:00.309Z,2.42
2023-05-19T12:56:30.718Z,2.30
2023-05-19T12:58:59.328Z,2.03
2023-05-19T13:01:28.654Z,2.63
2023-05-19T13:03:57.450Z,1.95
2023-05-19T13:06:26.150Z,1.92
2023-05-19T13:08:54.772Z,4.38
2023-05-19T13:11:23.387Z,2.92
2023-05-19T13:13:53.517Z,2.17
2023-05-19T13:16:22.198Z,2.50
2023-05-19T13:18:51.527Z,2.35
2023-05-19T13:21:20.259Z,2.10
2023-05-19T13:23:48.820Z,2.40
2023-05-19T13:26:17.529Z,1.98
2023-05-19T13:28:46.477Z,1.63
2023-05-19T13:31:16.557Z,2.95
2023-05-19T13:33:45.199Z,3.15
2023-05-19T13:36:13.911Z,2.33
2023-05-19T13:38:43.318Z,1.80
2023-05-19T13:41:13.736Z,2.35
2023-05-19T13:43:42.508Z,2.75
2023-05-19T13:46:11.112Z,2.15
2023-05-19T13:48:41.290Z,1.90
2023-05-19T13:51:09.931Z,3.40
2023-05-19T13:53:39.166Z,2.17
2023-05-19T13:56:07.878Z,1.85
2023-05-19T13:58:36.534Z,2.05
2023-05-19T14:01:05.291Z,3.13
2023-05-19T14:03:34.071Z,2.20
2023-05-19T14:06:04.180Z,2.60
2023-05-19T14:08:32.831Z,2.72
2023-05-19T14:11:01.486Z,3.05
2023-05-19T14:13:34.755Z,1.58
2023-05-19T14:16:06.246Z,4.57
2023-05-19T14:18:34.910Z,3.00
2023-05-19T14:21:04.953Z,1.88
2023-05-19T14:23:33.895Z,1.90
2023-05-19T14:26:02.604Z,1.98
2023-05-19T14:28:31.223Z,1.88
2023-05-19T14:30:59.959Z,1.67
2023-05-19T14:33:29.741Z,2.03
2023-05-19T14:36:01.361Z,2.42
2023-05-19T14:38:31.302Z,2.22
2023-05-19T14:40:59.936Z,2.20
2023-05-19T14:43:28.543Z,2.95
2023-05-19T14:45:57.838Z,3.22
2023-05-19T14:48:26.481Z,3.45
2023-05-19T14:50:55.391Z,3.45
2023-05-19T14:53:24.002Z,2.08
2023-05-19T14:55:53.996Z,1.55
2023-05-19T14:58:28.797Z,3.40
2023-05-19T15:00:59.907Z,2.97
2023-05-19T15:03:28.640Z,2.67
2023-05-19T15:05:57.353Z,2.97
2023-05-19T15:08:26.012Z,3.57
2023-05-19T15:10:56.015Z,1.70
2023-05-19T15:13:26.225Z,2.53
2023-05-19T15:16:08.461Z,2.23
2023-05-19T15:18:44.130Z,1.60
2023-05-19T15:21:12.855Z,1.83
2023-05-19T15:23:41.461Z,2.30
2023-05-19T15:26:11.450Z,2.83
2023-05-19T15:28:40.193Z,2.50
2023-05-19T15:31:08.926Z,1.93
2023-05-19T15:33:37.667Z,2.27
2023-05-19T15:36:07.007Z,2.47
2023-05-19T15:38:37.212Z,1.95
2023-05-19T15:41:08.557Z,1.65
2023-05-19T15:43:38.736Z,1.73
2023-05-19T15:46:07.423Z,2.65
2023-05-19T15:48:36.199Z,2.10
2023-05-19T15:51:04.817Z,3.10
2023-05-19T15:53:33.423Z,3.72
2023-05-19T15:56:03.317Z,2.42
2023-05-19T15:58:33.249Z,3.60
2023-05-19T16:01:03.607Z,1.90
2023-05-19T16:03:32.658Z,1.88
2023-05-19T16:06:01.723Z,3.05
2023-05-19T16:08:30.448Z,2.10
2023-05-19T16:10:59.100Z,1.90
2023-05-19T16:13:27.817Z,3.40
2023-05-19T16:15:56.524Z,1.63
2023-05-19T16:18:26.470Z,1.73
2023-05-19T16:20:55.089Z,1.93
2023-05-19T16:23:24.796Z,2.20
2023-05-19T16:25:54.505Z,2.17
2023-05-19T16:28:24.762Z,2.43
2023-05-19T16:30:53.779Z,1.67
2023-05-19T16:33:22.359Z,1.40
2023-05-19T16:35:52.425Z,2.20
2023-05-19T16:38:21.252Z,1.87
2023-05-19T16:40:49.893Z,1.73
2023-05-19T16:43:18.512Z,3.37
2023-05-19T16:45:47.157Z,2.57
2023-05-19T16:48:15.823Z,2.87
2023-05-19T16:50:44.442Z,2.73
2023-05-19T16:53:14.361Z,1.47
2023-05-19T16:55:43.013Z,2.13
2023-05-19T16:58:11.628Z,3.60
2023-05-19T17:00:40.328Z,2.57
2023-05-19T17:03:09.143Z,2.10
2023-05-19T17:05:38.919Z,2.33
2023-05-19T17:08:07.630Z,1.40
2023-05-19T17:10:39.156Z,2.07
2023-05-19T17:13:07.934Z,1.90
2023-05-19T17:15:36.527Z,2.37
2023-05-19T17:18:05.811Z,1.53
2023-05-19T17:20:34.658Z,2.60
2023-05-19T17:23:03.410Z,3.23
2023-05-19T17:25:34.623Z,2.00
2023-05-19T17:28:04.590Z,3.03
2023-05-19T17:30:34.641Z,1.87
2023-05-19T17:33:03.797Z,3.07
2023-05-19T17:35:32.418Z,2.07
2023-05-19T17:38:01.062Z,2.90
2023-05-19T17:40:29.723Z,1.43
2023-05-19T17:42:58.323Z,2.77
2023-05-19T17:45:28.333Z,2.23
2023-05-19T17:47:56.933Z,2.30
2023-05-19T17:50:25.661Z,1.30
2023-05-19T17:52:56.065Z,1.53
2023-05-19T17:55:29.721Z,1.90
2023-05-19T17:57:59.158Z,1.87
2023-05-19T18:00:29.566Z,1.13
2023-05-19T18:02:58.911Z,2.03
2023-05-19T18:05:28.145Z,1.30
2023-05-19T18:07:57.622Z,1.20
2023-05-19T18:10:27.482Z,2.30
2023-05-19T18:12:56.151Z,1.87
2023-05-19T18:15:24.784Z,2.27
2023-05-19T18:17:54.791Z,1.40
2023-05-19T18:20:23.371Z,3.60
2023-05-19T18:22:51.994Z,2.07
2023-05-19T18:25:20.951Z,1.20
2023-05-19T18:27:49.686Z,2.03
2023-05-19T18:30:18.675Z,2.83
2023-05-19T18:32:47.349Z,1.47
2023-05-19T18:35:17.327Z,3.63
2023-05-19T18:37:46.079Z,2.40
2023-05-19T18:40:14.750Z,1.60
2023-05-19T18:42:43.382Z,2.17
2023-05-19T18:45:12.227Z,1.40
2023-05-19T18:47:40.839Z,1.20
2023-05-19T18:50:10.282Z,1.57
2023-05-19T18:52:40.327Z,2.20
2023-05-19T18:55:09.370Z,2.37
2023-05-19T18:57:38.072Z,2.60
2023-05-19T19:00:07.222Z,2.03
2023-05-19T19:02:35.863Z,3.23
2023-05-19T19:05:09.204Z,1.33
2023-05-19T19:07:42.091Z,2.40
2023-05-19T19:10:11.021Z,2.27
2023-05-19T19:12:39.778Z,3.33
2023-05-19T19:15:08.898Z,2.23
2023-05-19T19:17:37.725Z,2.23
2023-05-19T19:20:06.749Z,2.43
2023-05-19T19:22:35.434Z,1.50
2023-05-19T19:25:05.618Z,1.47
2023-05-19T19:27:35.556Z,2.97
2023-05-19T19:30:04.461Z,2.60
2023-05-19T19:32:33.346Z,1.60
2023-05-19T19:35:02.096Z,3.00
2023-05-19T19:37:30.740Z,2.00
2023-05-19T19:39:59.506Z,2.00
2023-05-19T19:42:29.492Z,2.27
2023-05-19T19:44:58.165Z,1.83
2023-05-19T19:47:27.045Z,2.93
2023-05-19T19:49:56.083Z,1.60
2023-05-19T19:52:24.692Z,2.10
2023-05-19T19:54:53.349Z,1.97
2023-05-19T19:57:21.948Z,2.83
2023-05-19T19:59:55.151Z,2.87
2023-05-19T20:02:23.855Z,1.20
2023-05-19T20:04:52.501Z,1.30
2023-05-19T20:07:23.188Z,1.67
2023-05-19T20:09:52.651Z,2.67
2023-05-19T20:12:21.325Z,1.83
2023-05-19T20:14:51.379Z,1.47
2023-05-19T20:17:21.343Z,2.13
2023-05-19T20:19:50.000Z,2.17
2023-05-19T20:22:18.554Z,2.20
2023-05-19T20:24:47.114Z,2.60
2023-05-19T20:27:15.779Z,2.27
2023-05-19T20:29:45.387Z,2.30
2023-05-19T20:32:13.970Z,1.60
2023-05-19T20:34:44.018Z,3.67
2023-05-19T20:37:13.748Z,2.43
2023-05-19T20:39:42.365Z,1.13
2023-05-19T20:42:11.250Z,3.33
2023-05-19T20:44:39.809Z,1.30
2023-05-19T20:47:08.811Z,1.87
2023-05-19T20:49:37.438Z,1.97
2023-05-19T20:52:07.779Z,1.10
2023-05-19T20:54:36.416Z,1.57
2023-05-19T20:57:08.938Z,2.33
2023-05-19T20:59:38.526Z,1.47
2023-05-19T21:02:07.614Z,1.70
2023-05-19T21:04:36.460Z,1.67
2023-05-19T21:07:05.160Z,1.83
2023-05-19T21:09:35.115Z,4.43
2023-05-19T21:12:03.809Z,1.33
2023-05-19T21:14:32.525Z,2.37
2023-05-19T21:17:01.260Z,1.70
2023-05-19T21:19:29.909Z,1.77
2023-05-19T21:21:58.511Z,1.80
2023-05-19T21:24:28.244Z,2.37
2023-05-19T21:26:58.171Z,1.87
2023-05-19T21:29:26.981Z,2.10
2023-05-19T21:31:56.408Z,1.93
2023-05-19T21:34:25.098Z,1.93
2023-05-19T21:36:53.685Z,2.53
2023-05-19T21:39:22.294Z,1.67
2023-05-19T21:41:51.304Z,3.13
2023-05-19T21:44:21.869Z,2.13
2023-05-19T21:46:50.579Z,2.83
2023-05-19T21:49:19.905Z,4.10
2023-05-19T21:51:48.534Z,2.10
2023-05-19T21:54:17.134Z,2.70
2023-05-19T21:56:45.769Z,2.53
2023-05-19T21:59:14.433Z,1.60
2023-05-19T22:01:44.439Z,2.40
2023-05-19T22:04:14.304Z,1.50
2023-05-19T22:06:43.729Z,2.13
2023-05-19T22:09:12.701Z,1.80
2023-05-19T22:11:41.729Z,2.47
2023-05-19T22:14:10.386Z,1.47
2023-05-19T22:16:39.094Z,2.27
2023-05-19T22:19:10.347Z,2.60
2023-05-19T22:21:39.065Z,1.50
2023-05-19T22:24:07.740Z,2.03
2023-05-19T22:26:36.390Z,2.03
2023-05-19T22:29:05.005Z,1.67
2023-05-19T22:31:33.580Z,2.40
2023-05-19T22:34:02.247Z,1.77
2023-05-19T22:36:32.268Z,2.00
2023-05-19T22:39:01.021Z,2.67
2023-05-19T22:41:29.716Z,1.60
2023-05-19T22:43:58.292Z,1.87
2023-05-19T22:46:27.051Z,1.47
2023-05-19T22:48:55.750Z,2.80
2023-05-19T22:51:24.437Z,1.57
2023-05-19T22:53:54.365Z,1.37
2023-05-19T22:56:23.218Z,2.20
2023-05-19T22:58:51.846Z,1.50
2023-05-19T23:01:20.522Z,1.50
2023-05-19T23:03:49.268Z,1.67
2023-05-19T23:06:17.819Z,2.50
2023-05-19T23:08:46.967Z,2.27
2023-05-19T23:11:16.905Z,3.40
2023-05-19T23:13:45.484Z,1.70
2023-05-19T23:16:14.205Z,2.70
2023-05-19T23:18:43.141Z,5.90
2023-05-19T23:21:11.861Z,2.93
2023-05-19T23:23:40.502Z,2.17
2023-05-19T23:26:09.183Z,2.33
2023-05-19T23:28:39.221Z,2.67
2023-05-19T23:31:07.879Z,3.53
2023-05-19T23:33:36.521Z,2.73
2023-05-19T23:36:07.792Z,2.27
2023-05-19T23:38:36.550Z,1.63
2023-05-19T23:41:05.792Z,1.97
2023-05-19T23:43:34.380Z,1.70
2023-05-19T23:46:04.333Z,2.97
2023-05-19T23:48:33.583Z,2.43
2023-05-19T23:51:02.350Z,3.10
2023-05-19T23:53:30.936Z,2.97
2023-05-19T23:55:59.496Z,2.90
2023-05-19T23:58:28.079Z,2.63
